createdAt,value
2022-11-20T00:01:34.042Z,71.93
2022-11-20T00:04:02.476Z,63.53
2022-11-20T00:06:31.137Z,69.82
2022-11-20T00:09:01.618Z,73.40
2022-11-20T00:11:31.388Z,80.45
2022-11-20T00:14:01.111Z,72.60
2022-11-20T00:16:32.707Z,79.63
2022-11-20T00:19:00.753Z,91.60
2022-11-20T00:21:30.113Z,76.30
2022-11-20T00:23:58.743Z,78.18
2022-11-20T00:26:28.353Z,72.18
2022-11-20T00:28:58.856Z,65.80
2022-11-20T00:31:27.703Z,72.07
2022-11-20T00:33:56.207Z,67.80
2022-11-20T00:36:27.898Z,60.28
2022-11-20T00:38:57.682Z,73.88
2022-11-20T00:41:27.147Z,77.68
2022-11-20T00:43:56.224Z,73.28
2022-11-20T00:46:26.634Z,73.07
2022-11-20T00:48:56.014Z,55.90
2022-11-20T00:51:27.133Z,66.85
2022-11-20T00:54:01.346Z,78.90
2022-11-20T00:56:30.040Z,69.75
2022-11-20T00:59:01.362Z,72.72
2022-11-20T01:01:33.342Z,79.05
2022-11-20T01:04:01.937Z,81.60
2022-11-20T01:06:35.924Z,69.63
2022-11-20T01:09:11.098Z,74.03
2022-11-20T01:11:42.578Z,72.55
2022-11-20T01:14:21.021Z,79.90
2022-11-20T01:16:51.980Z,62.65
2022-11-20T01:19:23.116Z,73.20
2022-11-20T01:21:53.241Z,70.20
2022-11-20T01:24:22.789Z,70.78
2022-11-20T01:26:52.398Z,72.57
2022-11-20T01:29:23.410Z,69.30
2022-11-20T01:31:53.864Z,69.57
2022-11-20T01:34:23.526Z,69.78
2022-11-20T01:36:52.888Z,78.80
2022-11-20T01:39:23.727Z,72.25
2022-11-20T01:42:11.966Z,72.28
2022-11-20T01:45:01.750Z,71.13
2022-11-20T01:47:29.935Z,76.80
2022-11-20T01:50:08.213Z,66.05
2022-11-20T01:52:44.334Z,70.93
2022-11-20T01:55:17.111Z,60.70
2022-11-20T01:57:46.172Z,65.63
2022-11-20T02:00:17.956Z,68.25
2022-11-20T02:03:14.243Z,66.45
2022-11-20T02:05:57.114Z,67.30
2022-11-20T02:08:26.119Z,64.93
2022-11-20T02:10:54.141Z,59.60
2022-11-20T02:13:41.413Z,59.92
2022-11-20T02:16:27.091Z,64.15
2022-11-20T02:18:56.951Z,73.75
2022-11-20T02:21:28.218Z,71.50
2022-11-20T02:24:03.764Z,59.28
2022-11-20T02:26:35.621Z,65.30
2022-11-20T02:29:05.298Z,65.10
2022-11-20T02:31:42.564Z,71.55
2022-11-20T02:34:10.636Z,69.72
2022-11-20T02:36:40.727Z,62.08
2022-11-20T02:39:08.754Z,71.15
2022-11-20T02:41:38.406Z,61.78
2022-11-20T02:44:08.939Z,59.97
2022-11-20T02:46:37.032Z,68.72
2022-11-20T02:49:06.346Z,74.35
2022-11-20T02:51:34.372Z,73.70
2022-11-20T02:54:02.610Z,69.93
2022-11-20T02:56:30.457Z,63.58
2022-11-20T02:58:59.003Z,66.65
2022-11-20T03:01:26.832Z,71.85
2022-11-20T03:03:56.320Z,68.95
2022-11-20T03:06:24.102Z,66.15
2022-11-20T03:08:52.720Z,66.57
2022-11-20T03:11:20.546Z,70.88
2022-11-20T03:13:49.173Z,67.68
2022-11-20T03:16:19.149Z,68.32
2022-11-20T03:18:47.765Z,73.97
2022-11-20T03:21:16.721Z,63.45
2022-11-20T03:23:45.043Z,63.70
2022-11-20T03:26:22.490Z,65.53
2022-11-20T03:28:53.040Z,61.30
2022-11-20T03:31:23.731Z,60.35
2022-11-20T03:33:52.380Z,63.20
2022-11-20T03:36:21.104Z,66.50
2022-11-20T03:38:50.283Z,70.28
2022-11-20T03:41:26.531Z,59.17
2022-11-20T03:44:00.040Z,68.65
2022-11-20T03:46:28.699Z,72.28
2022-11-20T03:48:57.443Z,65.53
2022-11-20T03:51:28.356Z,74.43
2022-11-20T03:53:58.285Z,74.30
2022-11-20T03:56:34.444Z,68.32
2022-11-20T03:59:02.910Z,72.22
2022-11-20T04:01:38.738Z,68.85
2022-11-20T04:04:07.060Z,71.95
2022-11-20T04:06:37.926Z,76.07
2022-11-20T04:09:06.905Z,76.20
2022-11-20T04:11:37.367Z,75.32
2022-11-20T04:14:08.014Z,75.95
2022-11-20T04:16:37.625Z,74.70
2022-11-20T04:19:08.250Z,72.30
2022-11-20T04:21:36.165Z,72.03
2022-11-20T04:24:04.638Z,74.22
2022-11-20T04:26:33.236Z,84.72
2022-11-20T04:29:04.870Z,73.28
2022-11-20T04:31:35.376Z,86.25
2022-11-20T04:34:05.554Z,73.78
2022-11-20T04:36:34.414Z,82.43
2022-11-20T04:39:05.764Z,77.57
2022-11-20T04:41:35.905Z,81.25
2022-11-20T04:44:06.487Z,79.15
2022-11-20T04:46:40.796Z,77.22
2022-11-20T04:49:09.564Z,70.65
2022-11-20T04:51:37.485Z,76.88
2022-11-20T04:54:05.965Z,75.88
2022-11-20T04:56:34.071Z,76.35
2022-11-20T04:59:03.345Z,75.70
2022-11-20T05:01:31.767Z,75.05
2022-11-20T05:03:59.849Z,72.53
2022-11-20T05:06:27.975Z,71.53
2022-11-20T05:08:56.231Z,73.65
2022-11-20T05:11:24.732Z,73.50
2022-11-20T05:13:54.372Z,75.65
2022-11-20T05:16:24.291Z,85.75
2022-11-20T05:18:53.895Z,84.78
2022-11-20T05:21:22.236Z,80.85
2022-11-20T05:23:50.671Z,82.50
2022-11-20T05:26:22.989Z,77.57
2022-11-20T05:28:52.453Z,82.68
2022-11-20T05:31:27.035Z,66.55
2022-11-20T05:33:57.885Z,66.97
2022-11-20T05:36:26.320Z,67.38
2022-11-20T05:38:59.792Z,71.15
2022-11-20T05:41:29.851Z,68.28
2022-11-20T05:43:59.306Z,75.40
2022-11-20T05:46:29.083Z,83.45
2022-11-20T05:48:59.420Z,65.38
2022-11-20T05:51:27.565Z,65.93
2022-11-20T05:53:57.252Z,66.38
2022-11-20T05:56:25.666Z,67.72
2022-11-20T05:58:53.559Z,60.80
2022-11-20T06:01:24.286Z,63.67
2022-11-20T06:03:53.755Z,60.42
2022-11-20T06:06:23.681Z,52.85
2022-11-20T06:08:51.313Z,67.88
2022-11-20T06:11:19.784Z,60.97
2022-11-20T06:13:48.497Z,73.35
2022-11-20T06:16:19.158Z,64.47
2022-11-20T06:18:47.970Z,69.63
2022-11-20T06:21:18.790Z,64.78
2022-11-20T06:23:48.029Z,82.03
2022-11-20T06:26:25.063Z,85.32
2022-11-20T06:28:53.472Z,87.07
2022-11-20T06:31:24.000Z,76.43
2022-11-20T06:33:52.887Z,89.40
2022-11-20T06:36:24.103Z,89.25
2022-11-20T06:38:51.864Z,77.85
2022-11-20T06:41:21.826Z,97.78
2022-11-20T06:43:50.344Z,96.68
2022-11-20T06:46:20.037Z,84.70
2022-11-20T06:48:48.883Z,91.75
2022-11-20T06:51:18.340Z,89.90
2022-11-20T06:53:46.434Z,91.45
2022-11-20T06:56:14.660Z,84.53
2022-11-20T06:58:42.479Z,95.35
2022-11-20T07:01:14.025Z,83.22
2022-11-20T07:03:42.663Z,112.07
2022-11-20T07:06:10.655Z,81.90
2022-11-20T07:08:39.313Z,80.32
2022-11-20T07:11:09.349Z,78.93
2022-11-20T07:13:37.399Z,75.10
2022-11-20T07:16:08.330Z,86.95
2022-11-20T07:18:37.967Z,88.85
2022-11-20T07:21:08.587Z,104.93
2022-11-20T07:23:37.192Z,87.70
2022-11-20T07:26:10.915Z,83.97
2022-11-20T07:31:08.991Z,75.85
2022-11-20T07:33:36.909Z,87.80
2022-11-20T07:36:05.631Z,76.65
2022-11-20T07:38:33.368Z,86.20
2022-11-20T07:41:03.999Z,80.50
2022-11-20T07:43:34.850Z,70.43
2022-11-20T07:46:06.956Z,68.78
2022-11-20T07:48:34.789Z,73.38
2022-11-20T07:51:03.420Z,71.60
2022-11-20T07:53:31.279Z,70.65
2022-11-20T07:56:03.792Z,74.35
2022-11-20T07:58:34.368Z,72.50
2022-11-20T08:01:08.050Z,72.25
2022-11-20T08:03:38.820Z,67.85
2022-11-20T08:06:07.672Z,69.95
2022-11-20T08:08:38.868Z,71.65
2022-11-20T08:11:29.407Z,69.60
2022-11-20T08:14:15.787Z,63.22
2022-11-20T08:16:46.563Z,70.43
2022-11-20T08:19:16.170Z,73.00
2022-11-20T08:21:45.137Z,70.55
2022-11-20T08:24:13.519Z,68.10
2022-11-20T08:26:42.261Z,72.85
2022-11-20T08:29:10.124Z,69.65
2022-11-20T08:31:38.593Z,73.95
2022-11-20T08:34:26.491Z,66.00
2022-11-20T08:36:54.744Z,68.60
2022-11-20T08:39:22.670Z,65.80
2022-11-20T08:41:50.975Z,65.40
2022-11-20T08:44:18.780Z,66.82
2022-11-20T08:46:48.421Z,80.00
2022-11-20T08:49:16.348Z,69.97
2022-11-20T08:51:44.660Z,67.30
2022-11-20T08:54:12.743Z,60.97
2022-11-20T08:56:41.357Z,66.80
2022-11-20T08:59:26.965Z,67.03
2022-11-20T09:01:57.835Z,69.70
2022-11-20T09:04:25.834Z,74.57
2022-11-20T09:06:54.301Z,70.28
2022-11-20T09:09:22.330Z,80.75
2022-11-20T09:11:51.530Z,75.53
2022-11-20T09:14:19.502Z,73.50
2022-11-20T09:16:48.030Z,69.90
2022-11-20T09:22:04.808Z,69.45
2022-11-20T09:24:32.590Z,71.18
2022-11-20T09:27:03.630Z,68.90
2022-11-20T09:29:32.405Z,74.53
2022-11-20T09:32:01.347Z,67.82
2022-11-20T09:34:29.639Z,81.95
2022-11-20T09:37:01.555Z,76.50
2022-11-20T09:39:32.941Z,74.63
2022-11-20T09:42:25.192Z,74.47
2022-11-20T09:45:21.662Z,70.35
2022-11-20T09:48:18.592Z,76.82
2022-11-20T09:51:05.044Z,75.00
2022-11-20T09:54:11.112Z,73.75
2022-11-20T09:56:41.921Z,72.85
2022-11-20T09:59:38.152Z,77.28
2022-11-20T10:02:48.097Z,68.18
2022-11-20T10:05:28.462Z,68.80
2022-11-20T10:08:17.257Z,85.22
2022-11-20T10:10:53.611Z,77.57
2022-11-20T10:13:45.770Z,78.68
2022-11-20T10:16:40.976Z,74.10
2022-11-20T10:19:39.156Z,87.55
2022-11-20T10:22:37.110Z,81.53
2022-11-20T10:25:46.365Z,73.63
2022-11-20T10:28:37.315Z,68.22
2022-11-20T10:31:11.912Z,67.35
2022-11-20T10:34:10.994Z,65.82
2022-11-20T10:37:13.501Z,74.15
2022-11-20T10:40:20.133Z,72.20
2022-11-20T10:42:53.149Z,68.70
2022-11-20T10:45:30.437Z,78.63
2022-11-20T10:48:08.933Z,72.50
2022-11-20T10:50:41.827Z,69.53
2022-11-20T10:53:35.903Z,85.57
2022-11-20T10:56:11.376Z,85.97
2022-11-20T10:58:47.371Z,64.72
2022-11-20T11:01:18.867Z,61.17
2022-11-20T11:03:47.366Z,86.93
2022-11-20T11:06:27.876Z,82.38
2022-11-20T11:09:00.402Z,137.32
2022-11-20T11:11:32.369Z,129.20
2022-11-20T11:14:18.761Z,98.18
2022-11-20T11:16:53.064Z,72.70
2022-11-20T11:19:20.997Z,73.93
2022-11-20T11:21:55.392Z,69.75
2022-11-20T11:24:44.942Z,107.25
2022-11-20T11:27:17.504Z,73.45
2022-11-20T11:29:46.479Z,66.63
2022-11-20T11:32:16.739Z,66.03
2022-11-20T11:34:45.225Z,65.07
2022-11-20T11:37:20.109Z,56.70
2022-11-20T11:39:55.059Z,60.65
2022-11-20T11:42:29.601Z,65.70
2022-11-20T11:45:13.631Z,63.63
2022-11-20T11:47:45.253Z,56.33
2022-11-20T11:50:13.126Z,53.70
2022-11-20T11:53:19.076Z,58.67
2022-11-20T11:56:11.541Z,57.35
2022-11-20T11:58:47.432Z,58.65
2022-11-20T12:01:50.286Z,59.33
2022-11-20T12:07:13.096Z,53.63
2022-11-20T12:09:55.401Z,79.50
2022-11-20T12:12:44.633Z,60.47
2022-11-20T12:15:15.834Z,54.60
2022-11-20T12:17:43.724Z,56.53
2022-11-20T12:20:15.949Z,58.78
2022-11-20T12:23:11.547Z,56.97
2022-11-20T12:25:40.946Z,61.90
2022-11-20T12:28:08.741Z,59.83
2022-11-20T12:31:02.286Z,58.42
2022-11-20T12:33:48.376Z,58.08
2022-11-20T12:36:23.795Z,60.70
2022-11-20T12:39:06.544Z,66.72
2022-11-20T12:42:06.812Z,58.80
2022-11-20T12:44:53.300Z,57.70
2022-11-20T12:47:51.755Z,67.00
2022-11-20T12:51:14.625Z,63.13
2022-11-20T12:53:51.670Z,53.28
2022-11-20T12:56:33.092Z,62.17
2022-11-20T12:59:27.602Z,59.58
2022-11-20T13:02:02.929Z,67.85
2022-11-20T13:04:37.488Z,61.50
2022-11-20T13:07:11.184Z,56.15
2022-11-20T13:09:46.695Z,57.58
2022-11-20T13:12:25.140Z,58.20
2022-11-20T13:15:18.161Z,58.45
2022-11-20T13:17:53.981Z,58.30
2022-11-20T13:20:22.125Z,70.18
2022-11-20T13:22:58.523Z,56.58
2022-11-20T13:25:40.507Z,57.50
2022-11-20T13:28:11.607Z,51.35
2022-11-20T13:30:51.487Z,50.13
2022-11-20T13:33:38.680Z,84.63
2022-11-20T13:36:27.181Z,80.15
2022-11-20T13:38:57.522Z,104.18
2022-11-20T13:41:36.561Z,94.72
2022-11-20T13:44:10.325Z,103.15
2022-11-20T13:46:46.542Z,87.78
2022-11-20T13:49:33.679Z,115.40
2022-11-20T13:52:28.896Z,111.18
2022-11-20T13:55:18.356Z,99.07
2022-11-20T13:57:52.761Z,121.85
2022-11-20T14:00:23.038Z,109.75
2022-11-20T14:03:01.066Z,96.03
2022-11-20T14:05:29.957Z,93.20
2022-11-20T14:07:58.942Z,83.35
2022-11-20T14:10:32.046Z,72.88
2022-11-20T14:13:12.081Z,79.60
2022-11-20T14:15:45.101Z,91.35
2022-11-20T14:18:22.957Z,78.30
2022-11-20T14:20:50.896Z,84.93
2022-11-20T14:23:30.045Z,119.45
2022-11-20T14:25:58.544Z,106.72
2022-11-20T14:28:31.542Z,89.82
2022-11-20T14:30:59.190Z,87.53
2022-11-20T14:33:28.636Z,83.45
2022-11-20T14:35:58.218Z,76.20
2022-11-20T14:38:30.847Z,85.03
2022-11-20T14:41:24.445Z,84.60
2022-11-20T14:43:59.813Z,79.53
2022-11-20T14:46:28.767Z,87.97
2022-11-20T14:48:58.736Z,81.68
2022-11-20T14:51:36.372Z,78.63
2022-11-20T14:54:11.899Z,73.15
2022-11-20T14:56:39.994Z,83.40
2022-11-20T14:59:10.303Z,74.60
2022-11-20T15:01:39.088Z,59.58
2022-11-20T15:04:11.784Z,66.07
2022-11-20T15:06:50.190Z,69.15
2022-11-20T15:09:18.430Z,76.68
2022-11-20T15:12:17.495Z,75.35
2022-11-20T15:14:45.642Z,78.13
2022-11-20T15:17:13.561Z,61.28
2022-11-20T15:19:41.941Z,80.13
2022-11-20T15:22:17.655Z,68.35
2022-11-20T15:24:47.282Z,77.63
2022-11-20T15:27:15.093Z,76.25
2022-11-20T15:29:46.336Z,76.30
2022-11-20T15:32:16.265Z,70.20
2022-11-20T15:34:44.851Z,65.22
2022-11-20T15:37:12.636Z,81.95
2022-11-20T15:39:40.857Z,92.03
2022-11-20T15:42:08.546Z,94.40
2022-11-20T15:44:36.895Z,92.38
2022-11-20T15:47:05.375Z,85.03
2022-11-20T15:49:33.545Z,79.47
2022-11-20T15:52:01.682Z,67.90
2022-11-20T15:54:30.249Z,89.50
2022-11-20T15:56:58.318Z,86.93
2022-11-20T15:59:26.737Z,82.55
2022-11-20T16:01:54.805Z,77.53
2022-11-20T16:04:23.361Z,71.57
2022-11-20T16:06:51.975Z,79.05
2022-11-20T16:09:20.621Z,73.93
2022-11-20T16:11:48.347Z,80.10
2022-11-20T16:14:35.093Z,67.55
2022-11-20T16:17:03.202Z,76.00
2022-11-20T16:19:31.298Z,81.97
2022-11-20T16:22:03.168Z,72.13
2022-11-20T16:24:32.177Z,83.78
2022-11-20T16:27:00.518Z,83.22
2022-11-20T16:29:28.822Z,82.85
2022-11-20T16:31:58.264Z,61.05
2022-11-20T16:34:27.239Z,85.35
2022-11-20T16:36:55.224Z,66.00
2022-11-20T16:39:24.268Z,74.93
2022-11-20T16:41:52.156Z,72.78
2022-11-20T16:44:21.089Z,67.50
2022-11-20T16:46:49.992Z,68.43
2022-11-20T16:49:19.136Z,72.68
2022-11-20T16:51:47.601Z,70.95
2022-11-20T16:54:20.793Z,76.13
2022-11-20T16:56:52.197Z,76.97
2022-11-20T16:59:22.360Z,62.38
2022-11-20T17:01:51.958Z,74.45
2022-11-20T17:04:22.541Z,74.13
2022-11-20T17:06:55.245Z,77.47
2022-11-20T17:11:53.331Z,71.43
2022-11-20T17:14:23.001Z,74.57
2022-11-20T17:16:51.747Z,100.50
2022-11-20T17:19:21.203Z,82.20
2022-11-20T17:21:50.241Z,73.88
2022-11-20T17:24:18.908Z,67.55
2022-11-20T17:26:49.184Z,75.63
2022-11-20T17:29:19.070Z,69.55
2022-11-20T17:32:06.762Z,68.78
2022-11-20T17:34:35.005Z,67.78
2022-11-20T17:37:03.623Z,75.05
2022-11-20T17:39:31.588Z,67.07
2022-11-20T17:42:18.175Z,64.38
2022-11-20T17:44:47.540Z,71.30
2022-11-20T17:47:16.319Z,93.63
2022-11-20T17:49:44.453Z,100.03
2022-11-20T17:52:12.210Z,175.95
2022-11-20T17:54:40.481Z,208.85
2022-11-20T17:57:27.911Z,120.90
2022-11-20T17:59:56.363Z,128.35
2022-11-20T18:02:24.015Z,158.63
2022-11-20T18:04:52.459Z,73.05
2022-11-20T18:07:20.323Z,66.72
2022-11-20T18:09:48.450Z,57.22
2022-11-20T18:12:16.527Z,78.15
2022-11-20T18:14:45.223Z,67.18
2022-11-20T18:17:14.983Z,73.38
2022-11-20T18:20:06.795Z,78.82
2022-11-20T18:22:33.199Z,82.88
2022-11-20T18:25:02.942Z,79.90
2022-11-20T18:27:30.922Z,84.40
2022-11-20T18:29:59.758Z,82.13
2022-11-20T18:32:27.771Z,84.30
2022-11-20T18:34:56.193Z,80.28
2022-11-20T18:37:24.510Z,40.08
2022-11-20T18:39:52.980Z,69.82
2022-11-20T18:42:39.442Z,80.30
2022-11-20T18:45:08.197Z,80.63
2022-11-20T18:47:40.564Z,84.40
2022-11-20T18:50:09.673Z,73.40
2022-11-20T18:52:42.261Z,68.13
2022-11-20T18:57:38.634Z,79.43
2022-11-20T19:00:09.598Z,67.63
2022-11-20T19:02:42.284Z,78.38
2022-11-20T19:05:12.515Z,72.20
2022-11-20T19:07:41.037Z,83.97
2022-11-20T19:10:09.776Z,81.95
2022-11-20T19:12:38.401Z,70.20
2022-11-20T19:15:07.095Z,58.88
2022-11-20T19:17:35.448Z,65.50
2022-11-20T19:20:04.207Z,74.82
2022-11-20T19:22:32.125Z,69.57
2022-11-20T19:25:00.873Z,81.22
2022-11-20T19:27:28.673Z,83.68
2022-11-20T19:30:03.371Z,82.32
2022-11-20T19:32:33.214Z,70.65
2022-11-20T19:35:02.142Z,87.68
2022-11-20T19:37:33.815Z,92.25
2022-11-20T19:40:04.879Z,75.55
2022-11-20T19:42:33.022Z,85.30
2022-11-20T19:45:01.256Z,71.15
2022-11-20T19:47:46.354Z,77.95
2022-11-20T19:50:18.065Z,77.47
2022-11-20T19:52:46.492Z,73.60
2022-11-20T19:55:15.248Z,88.85
2022-11-20T19:57:44.047Z,120.90
2022-11-20T20:00:17.279Z,99.90
2022-11-20T20:02:50.557Z,112.95
2022-11-20T20:05:19.567Z,108.13
2022-11-20T20:07:47.885Z,104.70
2022-11-20T20:10:18.403Z,98.93
2022-11-20T20:12:47.056Z,93.65
2022-11-20T20:15:15.497Z,99.72
2022-11-20T20:17:43.470Z,113.25
2022-11-20T20:20:12.799Z,110.28
2022-11-20T20:22:40.789Z,133.02
2022-11-20T20:25:09.251Z,147.07
2022-11-20T20:27:37.337Z,122.72
2022-11-20T20:30:07.890Z,125.88
2022-11-20T20:32:36.570Z,111.18
2022-11-20T20:35:06.317Z,94.95
2022-11-20T20:37:34.048Z,108.93
2022-11-20T20:40:02.631Z,115.43
2022-11-20T20:42:32.352Z,128.77
2022-11-20T20:45:06.990Z,108.22
2022-11-20T20:47:37.054Z,95.65
2022-11-20T20:50:07.393Z,97.45
2022-11-20T20:52:35.923Z,100.43
2022-11-20T20:55:04.906Z,99.68
2022-11-20T20:57:33.230Z,90.28
2022-11-20T21:00:01.930Z,92.78
2022-11-20T21:02:29.768Z,100.00
2022-11-20T21:04:58.492Z,98.82
2022-11-20T21:07:26.477Z,104.35
2022-11-20T21:09:54.967Z,114.65
2022-11-20T21:12:22.838Z,126.38
2022-11-20T21:14:51.724Z,112.85
2022-11-20T21:17:19.846Z,125.70
2022-11-20T21:19:47.952Z,130.43
2022-11-20T21:22:15.903Z,98.80
2022-11-20T21:24:44.366Z,94.35
2022-11-20T21:27:12.252Z,103.82
2022-11-20T21:29:40.471Z,126.82
2022-11-20T21:32:08.522Z,122.53
2022-11-20T21:34:36.985Z,110.88
2022-11-20T21:37:05.914Z,105.35
2022-11-20T21:39:34.263Z,97.22
2022-11-20T21:42:02.018Z,92.95
2022-11-20T21:44:31.795Z,101.63
2022-11-20T21:46:59.956Z,97.10
2022-11-20T21:49:28.276Z,110.00
2022-11-20T21:51:56.145Z,106.15
2022-11-20T21:54:24.756Z,121.40
2022-11-20T21:56:52.791Z,118.35
2022-11-20T21:59:22.199Z,109.65
2022-11-20T22:01:50.482Z,120.40
2022-11-20T22:04:19.275Z,113.97
2022-11-20T22:06:47.104Z,102.72
2022-11-20T22:09:15.640Z,108.38
2022-11-20T22:11:43.643Z,102.13
2022-11-20T22:14:24.832Z,91.25
2022-11-20T22:16:53.791Z,99.22
2022-11-20T22:19:23.477Z,93.88
2022-11-20T22:21:51.888Z,103.28
2022-11-20T22:24:21.432Z,107.32
2022-11-20T22:26:50.228Z,103.43
2022-11-20T22:29:21.113Z,106.45
2022-11-20T22:31:51.182Z,103.75
2022-11-20T22:34:19.827Z,103.07
2022-11-20T22:36:47.767Z,108.57
2022-11-20T22:39:16.543Z,100.20
2022-11-20T22:41:44.486Z,104.70
2022-11-20T22:44:16.959Z,105.68
2022-11-20T22:46:45.105Z,101.38
2022-11-20T22:49:13.595Z,103.28
2022-11-20T22:51:42.308Z,100.88
2022-11-20T22:54:11.989Z,108.30
2022-11-20T22:56:40.418Z,99.30
2022-11-20T22:59:09.302Z,106.60
2022-11-20T23:01:38.138Z,104.57
2022-11-20T23:04:09.587Z,106.15
2022-11-20T23:06:38.038Z,111.95
2022-11-20T23:09:07.540Z,102.55
2022-11-20T23:11:36.341Z,106.07
2022-11-20T23:14:07.204Z,111.95
2022-11-20T23:16:35.677Z,107.28
2022-11-20T23:19:09.247Z,103.57
2022-11-20T23:21:39.033Z,110.05
2022-11-20T23:24:08.798Z,111.97
2022-11-20T23:26:38.516Z,111.00
2022-11-20T23:29:07.126Z,107.85
2022-11-20T23:31:35.886Z,111.70
2022-11-20T23:34:05.437Z,107.60
2022-11-20T23:36:33.616Z,115.15
2022-11-20T23:39:01.969Z,114.22
2022-11-20T23:41:29.939Z,116.90
2022-11-20T23:43:58.135Z,107.60
2022-11-20T23:46:26.046Z,113.97
2022-11-20T23:48:54.016Z,115.03
2022-11-20T23:51:22.109Z,131.35
2022-11-20T23:53:50.304Z,130.88
2022-11-20T23:56:18.091Z,138.00
2022-11-20T23:58:46.211Z,127.15
